Time;durP1;ratioP1;P1;durP2;ratioP2;P2;SDS_P1;SDS_P2;PMS_P1;PMS_P2;Temp;Humidity;BMP_temperature;BMP_pressure;BME280_temperature;BME280_humidity;BME280_pressure;Samples;Min_cycle;Max_cycle;Signal;HPM_P1;HPM_P2
2024/03/05 00:00:26;;;;;;;146.65;42.63;;;8.20;99.90;;;;;;5056682;28;20463;-89
2024/03/05 00:02:53;;;;;;;165.95;47.08;;;8.50;99.90;;;;;;5077751;28;20132;-90
2024/03/05 00:05:20;;;;;;;163.35;45.92;;;8.20;99.90;;;;;;5072673;28;21003;-90
2024/03/05 00:07:47;;;;;;;153.10;45.00;;;8.30;99.90;;;;;;5079381;28;20072;-89
2024/03/05 00:10:14;;;;;;;170.55;47.85;;;8.20;99.90;;;;;;5068427;28;20403;-90
2024/03/05 00:12:41;;;;;;;160.80;45.78;;;8.20;99.90;;;;;;5071143;28;20044;-90
2024/03/05 00:15:08;;;;;;;164.32;46.28;;;8.20;99.90;;;;;;5042155;28;20033;-90
2024/03/05 00:17:36;;;;;;;162.93;47.08;;;8.20;99.90;;;;;;5071619;28;20034;-90
2024/03/05 00:20:03;;;;;;;150.50;45.78;;;8.90;99.90;;;;;;5052117;28;20045;-90
2024/03/05 00:22:30;;;;;;;162.52;45.60;;;8.20;99.90;;;;;;5075070;28;20498;-90
2024/03/05 00:24:58;;;;;;;161.95;47.28;;;8.20;99.90;;;;;;5069208;28;20052;-90
2024/03/05 00:27:25;;;;;;;160.15;46.05;;;8.90;99.90;;;;;;5075436;28;20080;-90
2024/03/05 00:29:52;;;;;;;161.20;46.03;;;8.80;99.90;;;;;;5069569;28;20051;-90
2024/03/05 00:32:19;;;;;;;163.55;44.63;;;8.90;99.90;;;;;;5076880;28;20494;-90
2024/03/05 00:34:45;;;;;;;163.02;43.50;;;8.20;99.90;;;;;;5060952;28;20034;-90
2024/03/05 00:37:12;;;;;;;152.95;45.92;;;8.20;99.90;;;;;;5066895;28;20044;-90
2024/03/05 00:39:39;;;;;;;159.93;45.03;;;8.10;99.90;;;;;;5080478;28;20045;-90
2024/03/05 00:42:05;;;;;;;160.15;47.50;;;8.10;99.90;;;;;;5077805;28;20064;-90
2024/03/05 00:44:32;;;;;;;163.45;45.10;;;8.10;99.90;;;;;;5073490;28;20048;-90
2024/03/05 00:46:59;;;;;;;159.02;44.58;;;8.50;99.90;;;;;;5086298;28;20052;-89
2024/03/05 00:49:26;;;;;;;147.80;43.55;;;9.20;99.90;;;;;;5069531;28;20086;-90
2024/03/05 00:51:53;;;;;;;147.75;44.83;;;8.20;99.90;;;;;;5066490;28;20041;-89
2024/03/05 00:54:19;;;;;;;157.57;45.63;;;8.20;99.90;;;;;;5053674;28;20401;-90
2024/03/05 00:56:46;;;;;;;139.60;43.30;;;8.60;99.90;;;;;;5070049;28;20487;-90
2024/03/05 00:59:13;;;;;;;151.43;46.20;;;8.40;99.90;;;;;;5069925;28;20042;-89
2024/03/05 01:01:40;;;;;;;154.88;46.28;;;8.10;99.90;;;;;;5062025;28;20129;-90
2024/03/05 01:04:07;;;;;;;151.98;45.47;;;8.20;99.90;;;;;;5070381;28;20037;-90
2024/03/05 01:06:34;;;;;;;148.88;46.38;;;8.90;99.90;;;;;;5071259;28;20045;-89
2024/03/05 01:09:02;;;;;;;162.15;45.08;;;8.20;99.90;;;;;;5081676;28;20037;-90
2024/03/05 01:11:29;;;;;;;153.55;45.42;;;8.10;99.90;;;;;;5057063;28;20045;-89
2024/03/05 01:13:56;;;;;;;151.13;44.25;;;9.10;99.90;;;;;;5076998;28;20048;-90
2024/03/05 01:16:23;;;;;;;143.35;43.30;;;8.20;99.90;;;;;;5070761;28;20041;-90
2024/03/05 01:18:49;;;;;;;154.85;45.92;;;8.30;99.90;;;;;;5053347;28;20059;-90
2024/03/05 01:21:16;;;;;;;169.27;46.47;;;9.20;99.90;;;;;;5055722;28;20048;-89
2024/03/05 01:23:43;;;;;;;147.82;44.13;;;8.20;99.90;;;;;;5063839;28;20040;-89
2024/03/05 01:26:10;;;;;;;155.25;46.70;;;8.20;99.90;;;;;;5075974;28;20397;-89
2024/03/05 01:28:36;;;;;;;161.82;44.35;;;8.30;99.90;;;;;;5069266;28;20049;-89
2024/03/05 01:31:03;;;;;;;157.30;46.42;;;8.30;99.90;;;;;;5082397;28;20410;-90
2024/03/05 01:33:30;;;;;;;179.93;47.05;;;8.20;99.90;;;;;;5069337;28;20033;-89
2024/03/05 01:35:57;;;;;;;162.25;47.30;;;8.20;99.90;;;;;;5055538;28;20068;-91
2024/03/05 01:38:23;;;;;;;172.43;46.20;;;8.70;99.90;;;;;;5068476;28;20042;-90
2024/03/05 01:40:50;;;;;;;172.38;46.22;;;8.20;99.90;;;;;;5069181;28;20096;-90
2024/03/05 01:43:19;;;;;;;164.25;45.22;;;8.30;99.90;;;;;;5069714;28;20045;-90
2024/03/05 01:45:47;;;;;;;169.80;45.15;;;8.30;99.90;;;;;;5069717;28;20035;-90
2024/03/05 01:48:16;;;;;;;163.90;46.50;;;8.60;99.90;;;;;;5068930;28;20124;-90
2024/03/05 01:50:44;;;;;;;173.23;45.53;;;8.20;99.90;;;;;;5068705;28;20049;-90
2024/03/05 01:53:15;;;;;;;154.85;47.03;;;8.20;99.90;;;;;;5069015;28;20052;-89
2024/03/05 01:55:45;;;;;;;166.77;47.10;;;8.20;99.90;;;;;;5069698;28;20561;-90
2024/03/05 01:58:15;;;;;;;160.70;44.75;;;8.30;99.90;;;;;;5068631;28;20034;-90
2024/03/05 02:00:42;;;;;;;168.07;46.17;;;8.20;99.90;;;;;;5068450;28;20033;-90
2024/03/05 02:03:11;;;;;;;164.15;45.90;;;9.00;99.90;;;;;;5068619;28;20410;-90
2024/03/05 02:05:42;;;;;;;152.52;44.13;;;8.30;99.90;;;;;;5060651;28;20076;-90
2024/03/05 02:08:09;;;;;;;159.88;45.33;;;8.30;99.90;;;;;;5047524;28;20041;-90
2024/03/05 02:10:37;;;;;;;157.32;46.00;;;8.80;99.90;;;;;;5051851;28;20898;-90
2024/03/05 02:13:04;;;;;;;154.57;44.20;;;8.20;99.90;;;;;;5052428;28;20037;-90
2024/03/05 02:15:30;;;;;;;146.57;42.30;;;9.30;99.90;;;;;;5058092;28;20051;-90
2024/03/05 02:17:57;;;;;;;166.93;45.05;;;8.50;99.90;;;;;;5052756;28;20044;-90
2024/03/05 02:20:26;;;;;;;163.82;46.25;;;8.50;99.90;;;;;;5073525;28;20119;-90
2024/03/05 02:22:53;;;;;;;161.23;43.97;;;9.10;99.90;;;;;;5093067;28;20502;-90
2024/03/05 02:25:20;;;;;;;157.82;45.28;;;8.30;99.90;;;;;;5068567;28;20048;-90
2024/03/05 02:27:49;;;;;;;158.45;45.15;;;8.20;99.90;;;;;;5068275;28;20451;-89
2024/03/05 02:30:16;;;;;;;176.10;45.85;;;8.50;99.90;;;;;;5051561;28;20048;-90
2024/03/05 02:32:43;;;;;;;147.63;43.65;;;8.30;99.90;;;;;;5051574;28;20516;-90
2024/03/05 02:35:13;;;;;;;174.30;46.65;;;8.20;99.90;;;;;;5068656;28;20037;-90
2024/03/05 02:37:41;;;;;;;155.70;42.97;;;8.20;99.90;;;;;;5050987;28;20044;-90
2024/03/05 02:40:09;;;;;;;166.38;46.15;;;8.30;99.90;;;;;;5068184;28;20041;-90
2024/03/05 02:42:36;;;;;;;154.85;45.17;;;8.20;99.90;;;;;;5070622;28;20037;-90
2024/03/05 02:45:07;;;;;;;154.13;44.78;;;8.30;99.90;;;;;;5069730;28;20037;-90
2024/03/05 02:47:44;;;;;;;168.77;46.45;;;8.20;99.90;;;;;;5077666;28;20608;-90
2024/03/05 02:50:11;;;;;;;179.98;47.35;;;8.40;99.90;;;;;;5059279;28;20050;-89
2024/03/05 02:52:38;;;;;;;157.35;48.25;;;8.30;99.90;;;;;;5051290;28;20043;-90
2024/03/05 02:55:09;;;;;;;168.40;46.75;;;8.20;99.90;;;;;;5051543;28;20041;-90
2024/03/05 02:57:38;;;;;;;182.60;45.75;;;8.20;99.90;;;;;;5051146;28;20033;-90
2024/03/05 03:00:17;;;;;;;180.85;48.10;;;8.30;99.90;;;;;;5058046;28;20120;-90
2024/03/05 03:02:46;;;;;;;177.25;46.30;;;8.20;99.90;;;;;;5067412;28;20045;-89
2024/03/05 03:05:14;;;;;;;173.70;45.10;;;8.40;99.90;;;;;;5066961;28;20041;-90
2024/03/05 03:07:43;;;;;;;185.90;48.47;;;8.20;99.90;;;;;;5051435;28;20064;-90
2024/03/05 03:10:14;;;;;;;165.65;46.95;;;8.40;99.90;;;;;;5077084;28;20038;-90
2024/03/05 03:12:41;;;;;;;175.40;48.53;;;8.20;99.90;;;;;;5043252;28;20502;-90
2024/03/05 03:15:08;;;;;;;203.75;48.90;;;8.20;99.90;;;;;;5081302;28;20064;-90
2024/03/05 03:17:40;;;;;;;192.32;47.78;;;8.20;99.90;;;;;;5067636;28;20535;-90
2024/03/05 03:20:08;;;;;;;169.45;46.38;;;8.20;99.90;;;;;;5068080;28;20037;-90
2024/03/05 03:22:36;;;;;;;159.93;46.28;;;8.20;99.90;;;;;;5076806;28;20060;-89
2024/03/05 03:25:04;;;;;;;174.23;45.63;;;9.30;99.90;;;;;;5068455;28;20041;-90
2024/03/05 03:27:30;;;;;;;182.80;48.28;;;8.20;99.90;;;;;;5066916;28;20056;-89
2024/03/05 03:29:57;;;;;;;212.27;48.28;;;8.50;99.90;;;;;;5063890;28;20119;-90
2024/03/05 03:32:25;;;;;;;178.38;48.63;;;8.20;99.90;;;;;;5067653;28;20049;-89
2024/03/05 03:34:52;;;;;;;157.18;44.88;;;8.20;99.90;;;;;;5058726;28;20086;-90
2024/03/05 03:37:19;;;;;;;182.30;46.70;;;8.20;99.90;;;;;;5084732;28;20037;-89
2024/03/05 03:39:47;;;;;;;181.40;50.47;;;8.20;99.90;;;;;;5050787;28;20038;-89
2024/03/05 03:42:14;;;;;;;161.20;44.20;;;8.40;99.90;;;;;;5050675;28;20037;-89
2024/03/05 03:44:41;;;;;;;146.18;44.33;;;8.20;99.90;;;;;;5053637;28;20033;-90
2024/03/05 03:47:08;;;;;;;167.77;46.33;;;8.20;99.90;;;;;;5063110;28;20041;-90
2024/03/05 03:49:38;;;;;;;190.48;48.70;;;8.20;99.90;;;;;;5077011;28;20421;-90
2024/03/05 03:52:05;;;;;;;153.23;43.92;;;9.20;99.90;;;;;;5056123;28;20033;-90
2024/03/05 03:54:33;;;;;;;162.10;43.97;;;8.20;99.90;;;;;;5061397;28;20091;-90
2024/03/05 03:57:00;;;;;;;149.65;43.40;;;8.20;99.90;;;;;;5073927;28;20556;-90
2024/03/05 03:59:26;;;;;;;157.25;43.70;;;8.20;99.90;;;;;;5069705;28;20045;-90
2024/03/05 04:01:53;;;;;;;151.82;41.80;;;9.00;99.90;;;;;;5068215;28;20044;-90
2024/03/05 04:04:20;;;;;;;118.18;40.33;;;8.20;99.90;;;;;;5036023;28;20077;-90
2024/03/05 04:06:47;;;;;;;129.18;42.03;;;8.20;99.90;;;;;;5052984;28;20103;-90
2024/03/05 04:09:14;;;;;;;110.78;40.35;;;8.20;99.90;;;;;;5067694;28;20044;-90
2024/03/05 04:11:42;;;;;;;111.20;38.85;;;8.10;99.90;;;;;;5050040;28;20051;-89
2024/03/05 04:14:09;;;;;;;104.13;36.78;;;8.10;99.90;;;;;;5056492;28;20029;-89
2024/03/05 04:16:39;;;;;;;95.03;38.15;;;8.20;99.90;;;;;;5074125;28;20045;-90
2024/03/05 04:19:09;;;;;;;92.13;37.17;;;8.60;99.90;;;;;;5054157;28;20040;-90
2024/03/05 04:21:43;;;;;;;97.43;37.00;;;9.20;99.90;;;;;;5050159;28;20033;-89
2024/03/05 04:24:13;;;;;;;85.85;38.28;;;9.10;99.90;;;;;;5061740;28;20483;-89
2024/03/05 04:26:41;;;;;;;96.35;39.42;;;8.50;99.90;;;;;;5067155;28;20104;-89
2024/03/05 04:29:16;;;;;;;92.75;37.63;;;9.20;99.90;;;;;;5070476;28;20163;-89
2024/03/05 04:31:43;;;;;;;87.13;39.38;;;8.80;99.90;;;;;;5070821;28;20132;-89
2024/03/05 04:34:10;;;;;;;98.68;38.90;;;9.10;99.90;;;;;;5054434;28;20449;-89
2024/03/05 04:36:37;;;;;;;84.47;38.20;;;8.10;99.90;;;;;;5054191;28;20042;-89
2024/03/05 04:39:06;;;;;;;95.63;37.72;;;8.90;99.90;;;;;;5070705;28;20041;-90
2024/03/05 04:41:33;;;;;;;80.13;36.35;;;8.00;99.90;;;;;;5053777;28;20387;-89
2024/03/05 04:43:59;;;;;;;82.82;37.20;;;8.60;99.90;;;;;;5054202;28;20044;-89
2024/03/05 04:46:26;;;;;;;75.32;34.28;;;8.00;99.90;;;;;;5070798;28;20036;-89
2024/03/05 04:48:54;;;;;;;74.93;33.40;;;8.00;99.90;;;;;;5053714;28;20041;-89
2024/03/05 04:51:20;;;;;;;71.57;34.15;;;8.00;99.90;;;;;;5062455;28;20041;-89
2024/03/05 04:53:47;;;;;;;67.05;34.30;;;7.90;99.90;;;;;;5080115;28;20045;-89
2024/03/05 04:56:14;;;;;;;67.70;34.95;;;7.80;99.90;;;;;;5070270;28;20034;-89
2024/03/05 04:58:40;;;;;;;65.95;33.70;;;7.80;99.90;;;;;;5066687;28;20048;-89
2024/03/05 05:01:07;;;;;;;58.45;31.45;;;7.80;99.90;;;;;;5078229;28;20029;-89
2024/03/05 05:03:33;;;;;;;56.53;32.88;;;8.90;99.90;;;;;;5069590;28;20041;-89
2024/03/05 05:06:00;;;;;;;62.63;31.52;;;8.70;99.90;;;;;;5070099;28;20536;-89
2024/03/05 05:08:27;;;;;;;61.33;31.88;;;7.90;99.90;;;;;;5079087;28;20068;-89
2024/03/05 05:10:53;;;;;;;60.95;32.95;;;7.70;99.90;;;;;;5069794;28;20091;-88
2024/03/05 05:13:20;;;;;;;67.38;31.67;;;8.20;99.90;;;;;;5053773;28;20045;-89
2024/03/05 05:15:49;;;;;;;61.67;32.08;;;7.60;99.90;;;;;;5069240;28;20068;-89
2024/03/05 05:18:15;;;;;;;63.75;31.70;;;7.60;99.90;;;;;;5066709;28;20124;-89
2024/03/05 05:20:43;;;;;;;63.00;33.53;;;8.30;99.90;;;;;;5069395;28;20061;-89
2024/03/05 05:23:09;;;;;;;61.90;31.40;;;7.80;99.90;;;;;;5053935;28;20045;-89
2024/03/05 05:25:37;;;;;;;65.97;32.17;;;7.60;99.90;;;;;;5065809;28;20045;-89
2024/03/05 05:28:06;;;;;;;64.97;31.77;;;7.60;99.90;;;;;;5087941;28;20109;-88
2024/03/05 05:30:33;;;;;;;64.13;32.10;;;7.60;99.90;;;;;;5069380;28;20065;-89
2024/03/05 05:33:00;;;;;;;58.15;31.08;;;7.60;99.90;;;;;;5055211;28;20072;-89
2024/03/05 05:35:27;;;;;;;62.88;32.95;;;7.60;99.90;;;;;;5062901;28;20044;-89
2024/03/05 05:37:53;;;;;;;63.33;31.50;;;8.60;99.90;;;;;;5066066;28;20076;-89
2024/03/05 05:40:20;;;;;;;58.55;31.45;;;7.50;99.90;;;;;;5078994;28;20060;-89
2024/03/05 05:42:48;;;;;;;56.85;30.42;;;8.50;99.90;;;;;;5052434;28;20064;-89
2024/03/05 05:45:15;;;;;;;65.43;32.13;;;7.50;99.90;;;;;;5060342;28;20049;-89
2024/03/05 05:47:50;;;;;;;70.28;31.83;;;7.50;99.90;;;;;;5059790;28;20088;-89
2024/03/05 05:50:18;;;;;;;60.40;31.08;;;7.50;99.90;;;;;;5052707;28;20457;-89
2024/03/05 05:52:49;;;;;;;58.50;29.83;;;7.40;99.90;;;;;;5080875;28;20033;-89
2024/03/05 05:55:19;;;;;;;56.13;29.60;;;7.40;99.90;;;;;;5055887;28;20479;-89
2024/03/05 05:57:54;;;;;;;62.60;31.92;;;7.40;99.90;;;;;;5073640;28;20073;-89
2024/03/05 06:00:24;;;;;;;56.22;30.58;;;7.40;99.90;;;;;;5067925;28;20047;-89
2024/03/05 06:02:55;;;;;;;59.45;30.42;;;7.40;99.90;;;;;;5052406;28;20048;-88
2024/03/05 06:05:31;;;;;;;65.45;30.20;;;7.90;99.90;;;;;;5072911;28;20076;-89
2024/03/05 06:08:01;;;;;;;66.82;31.15;;;6.70;99.90;;;;;;5076050;28;20049;-89
2024/03/05 06:10:29;;;;;;;60.85;30.20;;;8.30;99.90;;;;;;5058787;28;20077;-89
2024/03/05 06:12:56;;;;;;;60.63;28.50;;;7.30;99.90;;;;;;5074951;28;20042;-89
2024/03/05 06:15:23;;;;;;;59.53;31.55;;;7.30;99.90;;;;;;5068771;28;20084;-88
2024/03/05 06:17:51;;;;;;;58.45;29.45;;;7.40;99.90;;;;;;5062147;28;20073;-89
2024/03/05 06:20:18;;;;;;;57.85;29.70;;;7.30;99.90;;;;;;5081775;28;20052;-89
2024/03/05 06:22:45;;;;;;;56.53;30.33;;;7.90;99.90;;;;;;5068493;28;20045;-89
2024/03/05 06:25:16;;;;;;;59.20;28.52;;;7.80;99.90;;;;;;5067984;28;20076;-89
2024/03/05 06:27:43;;;;;;;47.88;26.83;;;7.20;99.90;;;;;;5051027;28;20062;-89
2024/03/05 06:30:22;;;;;;;63.05;29.25;;;7.90;99.90;;;;;;5051438;28;22489;-89
2024/03/05 06:32:51;;;;;;;54.42;27.90;;;7.20;99.90;;;;;;5058516;28;20453;-89
2024/03/05 06:35:22;;;;;;;56.70;27.58;;;7.10;99.90;;;;;;5079540;28;20037;-89
2024/03/05 06:37:50;;;;;;;60.05;28.42;;;7.10;99.90;;;;;;5067874;28;20124;-89
2024/03/05 06:40:20;;;;;;;67.72;28.55;;;7.10;99.90;;;;;;5069217;28;20045;-89
2024/03/05 06:43:03;;;;;;;75.28;29.50;;;7.10;99.90;;;;;;5051193;28;20128;-89
2024/03/05 06:45:31;;;;;;;64.47;27.45;;;7.10;99.90;;;;;;5053412;28;20041;-89
2024/03/05 06:48:00;;;;;;;67.28;28.98;;;7.80;99.90;;;;;;5053443;28;20037;-89
2024/03/05 06:50:34;;;;;;;59.20;26.80;;;7.00;99.90;;;;;;5080928;28;20044;-89
2024/03/05 06:58:34;;;;;;;73.63;28.00;;;7.10;99.90;;;;;;5063088;28;20117;-89
2024/03/05 07:01:07;;;;;;;62.78;25.95;;;7.00;99.90;;;;;;5074917;28;20045;-89
2024/03/05 07:03:38;;;;;;;68.93;25.17;;;7.00;99.90;;;;;;5051158;28;20046;-89
2024/03/05 07:06:09;;;;;;;68.95;26.45;;;7.90;99.90;;;;;;5069855;28;20055;-88
2024/03/05 07:08:40;;;;;;;65.47;25.92;;;6.90;99.90;;;;;;5069957;28;20046;-88
2024/03/05 07:11:09;;;;;;;60.83;24.52;;;6.90;99.90;;;;;;5071188;28;20409;-89
2024/03/05 07:13:43;;;;;;;79.63;26.85;;;7.80;99.90;;;;;;5053176;28;20120;-89
2024/03/05 07:16:19;;;;;;;68.28;25.63;;;6.90;99.90;;;;;;5070605;28;20116;-89
2024/03/05 07:18:48;;;;;;;57.33;24.98;;;6.80;99.90;;;;;;5067763;28;20037;-89
2024/03/05 07:21:19;;;;;;;57.28;24.08;;;6.90;99.90;;;;;;5063359;28;20049;-89
2024/03/05 07:23:46;;;;;;;59.50;25.10;;;6.80;99.90;;;;;;5074044;28;20077;-89
2024/03/05 07:26:14;;;;;;;66.60;25.08;;;6.80;99.90;;;;;;5072241;28;20116;-89
2024/03/05 07:28:42;;;;;;;52.20;23.40;;;6.80;99.90;;;;;;5072908;28;20092;-89
2024/03/05 07:31:08;;;;;;;66.45;24.35;;;6.80;99.90;;;;;;5068868;28;20050;-89
2024/03/05 07:33:38;;;;;;;57.45;24.85;;;6.70;99.90;;;;;;5071001;28;20402;-90
2024/03/05 07:36:06;;;;;;;57.45;24.50;;;7.60;99.90;;;;;;5047802;28;20045;-89
2024/03/05 07:38:33;;;;;;;60.05;23.85;;;6.80;99.90;;;;;;5075882;28;20124;-89
2024/03/05 07:41:00;;;;;;;57.30;23.88;;;6.80;99.90;;;;;;5075002;28;20524;-89
2024/03/05 07:43:26;;;;;;;58.85;23.35;;;7.50;99.90;;;;;;5061899;28;20041;-89
2024/03/05 07:45:53;;;;;;;55.90;22.10;;;7.20;99.90;;;;;;5069547;28;20104;-90
2024/03/05 07:48:20;;;;;;;61.50;23.20;;;6.80;99.90;;;;;;5086457;28;20053;-89
2024/03/05 07:50:48;;;;;;;59.67;23.23;;;6.80;99.90;;;;;;5069651;28;20065;-90
2024/03/05 07:53:17;;;;;;;55.85;23.60;;;6.80;99.90;;;;;;5064692;28;20465;-90
2024/03/05 07:55:44;;;;;;;50.70;22.20;;;7.40;99.90;;;;;;5071061;28;20049;-91
2024/03/05 07:58:11;;;;;;;55.42;22.85;;;6.90;99.90;;;;;;5068636;28;20552;-90
2024/03/05 08:00:37;;;;;;;60.28;23.95;;;6.80;99.90;;;;;;5058934;28;20029;-90
2024/03/05 08:03:04;;;;;;;64.63;22.63;;;6.80;99.90;;;;;;5068535;28;20060;-90
2024/03/05 08:05:31;;;;;;;54.13;23.15;;;6.80;99.90;;;;;;5072427;28;20470;-89
2024/03/05 08:07:59;;;;;;;56.47;22.13;;;7.30;99.90;;;;;;5072248;28;20037;-90
2024/03/05 08:10:26;;;;;;;56.55;22.10;;;6.60;99.90;;;;;;5075001;28;20502;-89
2024/03/05 08:12:55;;;;;;;53.72;21.75;;;6.80;99.90;;;;;;5074246;28;20065;-89
2024/03/05 08:15:26;;;;;;;58.05;22.23;;;6.80;99.90;;;;;;5056694;28;20494;-90
2024/03/05 08:17:53;;;;;;;59.47;21.92;;;6.70;99.90;;;;;;5078750;28;20033;-90
2024/03/05 08:20:25;;;;;;;52.88;21.77;;;7.20;99.90;;;;;;5072027;28;20049;-89
2024/03/05 08:22:53;;;;;;;57.35;22.13;;;6.60;99.90;;;;;;5076034;28;20029;-90
2024/03/05 08:25:21;;;;;;;50.70;20.92;;;6.60;99.90;;;;;;5092634;28;20041;-90
2024/03/05 08:27:55;;;;;;;54.50;21.33;;;7.60;99.90;;;;;;5086735;28;20059;-90
2024/03/05 08:30:24;;;;;;;56.05;21.83;;;7.20;99.90;;;;;;5070237;28;20870;-90
2024/03/05 08:32:52;;;;;;;58.10;21.52;;;6.60;99.90;;;;;;5054027;28;20036;-90
2024/03/05 08:35:19;;;;;;;61.35;23.48;;;7.50;99.90;;;;;;5072808;28;20036;-89
2024/03/05 08:37:47;;;;;;;56.30;21.60;;;6.60;99.90;;;;;;5082629;28;20033;-90
2024/03/05 08:40:19;;;;;;;56.88;22.40;;;7.40;99.90;;;;;;5072958;28;20033;-88
2024/03/05 08:42:49;;;;;;;47.80;22.17;;;6.60;99.90;;;;;;5070105;28;20041;-88
2024/03/05 08:45:21;;;;;;;47.47;20.58;;;6.50;99.90;;;;;;5069819;28;20076;-88
2024/03/05 08:47:49;;;;;;;40.90;19.55;;;6.50;99.90;;;;;;5070239;28;20502;-88
2024/03/05 08:50:17;;;;;;;40.72;20.58;;;6.70;99.90;;;;;;5057170;28;20481;-88
2024/03/05 08:52:44;;;;;;;43.08;20.17;;;7.10;99.90;;;;;;5067217;28;20033;-87
2024/03/05 08:55:15;;;;;;;41.55;19.33;;;7.10;99.90;;;;;;5070581;28;20059;-88
2024/03/05 08:57:43;;;;;;;47.47;19.95;;;6.60;99.90;;;;;;5083644;28;20069;-89
2024/03/05 09:00:17;;;;;;;43.03;19.80;;;6.70;99.90;;;;;;5063338;28;20049;-89
2024/03/05 09:02:47;;;;;;;45.10;19.67;;;6.50;99.90;;;;;;5063012;28;20045;-87
2024/03/05 09:05:14;;;;;;;43.58;20.35;;;6.40;99.90;;;;;;5057111;28;20045;-87
2024/03/05 09:07:42;;;;;;;41.53;20.15;;;6.40;99.90;;;;;;5072313;28;20584;-89
2024/03/05 09:10:10;;;;;;;39.28;19.10;;;6.80;99.90;;;;;;5080446;28;20098;-88
2024/03/05 09:12:39;;;;;;;44.42;19.58;;;6.50;99.90;;;;;;5069620;28;20040;-89
2024/03/05 09:15:08;;;;;;;46.03;19.92;;;7.00;99.90;;;;;;5052833;28;20486;-89
2024/03/05 09:17:35;;;;;;;43.97;19.90;;;6.40;99.90;;;;;;5056748;28;20135;-88
2024/03/05 09:20:13;;;;;;;50.08;20.42;;;6.60;99.90;;;;;;5069764;28;20039;-88
2024/03/05 09:22:44;;;;;;;40.40;19.08;;;6.40;99.90;;;;;;5052940;28;20037;-89
2024/03/05 09:25:12;;;;;;;41.60;19.00;;;6.40;99.90;;;;;;5070525;28;20045;-89
2024/03/05 09:27:40;;;;;;;37.38;18.95;;;6.50;99.90;;;;;;5057983;28;20784;-89
2024/03/05 09:30:08;;;;;;;40.30;18.73;;;6.40;99.90;;;;;;5069198;28;20461;-87
2024/03/05 09:32:35;;;;;;;40.47;19.40;;;6.30;99.90;;;;;;5051662;28;20720;-90
2024/03/05 09:35:08;;;;;;;40.53;19.05;;;6.50;99.90;;;;;;5081905;28;20033;-88
2024/03/05 09:37:35;;;;;;;48.95;20.48;;;6.40;99.90;;;;;;5080711;28;20376;-88
2024/03/05 09:40:02;;;;;;;42.55;20.73;;;6.30;99.90;;;;;;5068916;28;20048;-87
2024/03/05 09:42:31;;;;;;;45.90;21.33;;;6.40;99.90;;;;;;5056291;28;20410;-87
2024/03/05 09:44:59;;;;;;;36.95;19.63;;;7.30;99.90;;;;;;5069192;28;20120;-86
2024/03/05 09:47:26;;;;;;;43.35;19.35;;;7.30;99.90;;;;;;5069501;28;20454;-89
2024/03/05 09:49:57;;;;;;;38.95;18.58;;;6.90;99.90;;;;;;5068915;28;20063;-87
2024/03/05 09:52:24;;;;;;;38.13;20.00;;;6.40;99.90;;;;;;5067794;28;20379;-89
2024/03/05 09:54:50;;;;;;;46.92;20.50;;;7.10;99.90;;;;;;5046203;28;20041;-90
2024/03/05 09:57:20;;;;;;;44.35;19.17;;;7.50;99.90;;;;;;5080075;28;20061;-87
2024/03/05 09:59:47;;;;;;;47.30;19.80;;;7.20;99.90;;;;;;5068047;28;20485;-87
2024/03/05 10:02:16;;;;;;;41.95;19.15;;;6.50;99.90;;;;;;5049492;28;20049;-88
2024/03/05 10:04:45;;;;;;;43.67;19.95;;;7.10;99.90;;;;;;5068730;28;20041;-87
2024/03/05 10:07:26;;;;;;;41.90;20.80;;;6.90;99.90;;;;;;5069866;28;20035;-88
2024/03/05 10:10:10;;;;;;;45.88;21.45;;;6.60;99.90;;;;;;5057936;28;20046;-88
2024/03/05 10:12:40;;;;;;;43.45;21.73;;;6.50;99.90;;;;;;5056689;28;20055;-89
2024/03/05 10:15:20;;;;;;;43.67;21.17;;;6.50;99.90;;;;;;5073361;28;20449;-90
2024/03/05 10:17:49;;;;;;;43.17;20.42;;;6.50;99.90;;;;;;5041044;28;20486;-88
2024/03/05 10:20:36;;;;;;;40.03;20.63;;;6.80;99.90;;;;;;5071882;28;20107;-89
2024/03/05 10:23:09;;;;;;;41.47;21.15;;;7.40;99.90;;;;;;5047934;28;20045;-89
2024/03/05 10:25:36;;;;;;;41.72;20.85;;;7.40;99.90;;;;;;5047064;28;20037;-90
2024/03/05 10:28:03;;;;;;;39.25;19.92;;;7.50;99.90;;;;;;5067680;28;20104;-88
2024/03/05 10:30:36;;;;;;;38.28;19.90;;;6.60;99.90;;;;;;5055830;28;20049;-89
2024/03/05 10:33:04;;;;;;;36.25;19.17;;;6.50;99.90;;;;;;5082738;28;20461;-86
2024/03/05 10:35:31;;;;;;;43.03;20.33;;;6.60;99.90;;;;;;5053608;28;20037;-86
2024/03/05 10:38:00;;;;;;;35.83;19.80;;;6.50;99.90;;;;;;5060334;28;20038;-88
2024/03/05 10:40:34;;;;;;;35.60;19.20;;;6.60;99.90;;;;;;5069424;28;20041;-89
2024/03/05 10:43:06;;;;;;;34.92;18.65;;;6.60;99.90;;;;;;5063617;28;20051;-89
2024/03/05 10:45:34;;;;;;;34.75;18.70;;;6.50;99.90;;;;;;5063073;28;20504;-88
2024/03/05 10:48:02;;;;;;;33.33;18.95;;;6.50;99.90;;;;;;5066170;28;20049;-89
2024/03/05 10:50:28;;;;;;;34.53;19.40;;;6.50;99.90;;;;;;5070347;28;20046;-88
2024/03/05 10:52:56;;;;;;;36.67;18.75;;;6.20;99.90;;;;;;5075883;28;20036;-90
2024/03/05 10:55:24;;;;;;;33.33;17.92;;;7.20;99.90;;;;;;5073530;28;20098;-89
2024/03/05 11:00:42;;;;;;;30.58;18.45;;;7.50;99.90;;;;;;5073165;28;20045;-90
2024/03/05 11:03:10;;;;;;;35.03;18.52;;;6.50;99.90;;;;;;5053228;28;20717;-89
2024/03/05 11:05:51;;;;;;;34.72;16.77;;;6.50;99.90;;;;;;5072188;28;20044;-89
2024/03/05 11:08:20;;;;;;;29.75;16.70;;;7.00;99.90;;;;;;5071527;28;20119;-89
2024/03/05 11:11:10;;;;;;;33.20;16.77;;;6.50;99.90;;;;;;5073508;28;20037;-89
2024/03/05 11:13:38;;;;;;;30.95;15.93;;;6.50;99.90;;;;;;5075690;28;20064;-89
2024/03/05 11:16:06;;;;;;;28.65;15.02;;;7.10;99.90;;;;;;5048160;28;20037;-90
2024/03/05 11:18:34;;;;;;;26.52;15.68;;;6.50;99.90;;;;;;5071812;28;20037;-89
2024/03/05 11:21:12;;;;;;;24.58;15.00;;;7.30;99.90;;;;;;5050734;28;20037;-89
2024/03/05 11:23:43;;;;;;;29.08;15.32;;;7.30;99.90;;;;;;5073830;28;20469;-89
2024/03/05 11:26:23;;;;;;;28.00;15.73;;;6.40;99.90;;;;;;5052593;28;20124;-89
2024/03/05 11:28:56;;;;;;;24.08;14.45;;;6.80;99.90;;;;;;5051767;28;20513;-89
2024/03/05 11:31:27;;;;;;;28.02;16.13;;;6.40;99.90;;;;;;5086507;28;20045;-89
2024/03/05 11:34:12;;;;;;;27.10;15.68;;;6.40;99.90;;;;;;5070654;28;20083;-89
2024/03/05 11:36:39;;;;;;;27.00;13.63;;;6.50;99.90;;;;;;5053190;28;20044;-90
2024/03/05 11:39:08;;;;;;;26.42;14.23;;;6.50;99.90;;;;;;5041354;28;20065;-89
2024/03/05 11:41:41;;;;;;;21.92;13.55;;;7.10;99.90;;;;;;5080255;28;20034;-89
2024/03/05 11:44:11;;;;;;;22.63;13.00;;;6.50;99.90;;;;;;5074960;28;20026;-90
2024/03/05 11:46:45;;;;;;;25.10;12.88;;;6.60;99.90;;;;;;5056271;28;20038;-89
2024/03/05 11:49:15;;;;;;;21.90;13.35;;;7.70;99.90;;;;;;5071308;28;20033;-89
2024/03/05 11:51:44;;;;;;;23.85;14.05;;;6.60;99.90;;;;;;5067051;28;20041;-89
2024/03/05 11:54:16;;;;;;;25.92;13.45;;;7.20;99.90;;;;;;5066014;28;20033;-88
2024/03/05 11:56:55;;;;;;;22.67;13.07;;;6.50;99.90;;;;;;5059276;28;20029;-89
2024/03/05 11:59:33;;;;;;;22.02;12.63;;;6.00;99.90;;;;;;5047315;28;20087;-88
2024/03/05 12:02:00;;;;;;;20.10;12.07;;;7.70;99.90;;;;;;5075479;28;20045;-89
2024/03/05 12:04:26;;;;;;;22.52;12.30;;;7.70;99.90;;;;;;5066831;28;20151;-88
2024/03/05 12:07:03;;;;;;;19.63;12.30;;;6.90;99.90;;;;;;5050020;28;20083;-89
2024/03/05 12:09:29;;;;;;;19.52;12.05;;;7.60;99.90;;;;;;5049891;28;20050;-89
2024/03/05 12:12:09;;;;;;;21.50;11.73;;;6.60;99.90;;;;;;5055226;28;20703;-88
2024/03/05 12:14:39;;;;;;;20.60;12.07;;;6.70;99.90;;;;;;5056994;28;20486;-89
2024/03/05 12:17:07;;;;;;;19.25;11.98;;;6.70;99.90;;;;;;5074569;28;20045;-89
2024/03/05 12:19:37;;;;;;;20.35;12.05;;;6.70;99.90;;;;;;5061396;28;20037;-88
2024/03/05 12:22:06;;;;;;;21.67;13.20;;;6.70;99.90;;;;;;5067312;28;20038;-88
2024/03/05 12:24:34;;;;;;;19.30;11.90;;;6.70;99.90;;;;;;5049481;28;20046;-88
2024/03/05 12:27:03;;;;;;;21.23;12.18;;;6.70;99.90;;;;;;5034174;28;20053;-88
2024/03/05 12:29:37;;;;;;;26.05;13.07;;;7.70;99.90;;;;;;5054408;28;20215;-89
2024/03/05 12:32:09;;;;;;;21.25;13.07;;;7.20;99.90;;;;;;5072584;28;20114;-89
2024/03/05 12:34:36;;;;;;;22.73;12.38;;;6.60;99.90;;;;;;5069716;28;20119;-88
2024/03/05 12:37:08;;;;;;;22.45;13.48;;;6.60;99.90;;;;;;5055775;28;20603;-89
2024/03/05 12:39:35;;;;;;;23.52;13.60;;;6.60;99.90;;;;;;5059825;28;20087;-89
2024/03/05 12:42:11;;;;;;;22.40;12.93;;;7.50;99.90;;;;;;5058322;28;20133;-89
2024/03/05 12:44:37;;;;;;;20.65;12.18;;;6.60;99.90;;;;;;5082408;28;20049;-87
2024/03/05 12:47:05;;;;;;;24.45;13.80;;;6.70;99.90;;;;;;5073751;28;20497;-88
2024/03/05 12:49:35;;;;;;;27.75;14.15;;;6.60;99.90;;;;;;5062832;28;20056;-88